Time;durP1;ratioP1;P1;durP2;ratioP2;P2;SDS_P1;SDS_P2;PMS_P1;PMS_P2;Temp;Humidity;BMP_temperature;BMP_pressure;BME280_temperature;BME280_humidity;BME280_pressure;Samples;Min_cycle;Max_cycle;Signal;HPM_P1;HPM_P2
2022/03/14 00:00:20;;;;;;;3.60;2.40;;;;;;;11.30;63.44;101606.81;5074459;28;20447;-67
2022/03/14 00:02:47;;;;;;;3.50;2.00;;;;;;;11.29;63.33;101602.63;5074388;28;20053;-67
2022/03/14 00:05:14;;;;;;;3.28;2.40;;;;;;;11.33;63.51;101612.63;5075546;28;20028;-66
2022/03/14 00:07:41;;;;;;;3.25;2.28;;;;;;;11.17;63.67;101610.97;5096506;28;20425;-67
2022/03/14 00:10:07;;;;;;;5.53;2.38;;;;;;;11.14;63.91;101614.69;5096029;28;20020;-66
2022/03/14 00:12:33;;;;;;;3.40;2.22;;;;;;;11.04;64.33;101608.91;5077991;28;20067;-67
2022/03/14 00:14:59;;;;;;;3.25;2.30;;;;;;;11.02;64.62;101613.47;5096153;28;20012;-67
2022/03/14 00:17:26;;;;;;;3.05;2.20;;;;;;;10.99;64.82;101613.78;5077902;28;20031;-67
2022/03/14 00:19:53;;;;;;;2.97;2.30;;;;;;;10.99;64.79;101616.38;5077852;28;20074;-67
2022/03/14 00:22:20;;;;;;;4.00;2.63;;;;;;;10.82;65.27;101600.16;5077797;28;20421;-67
2022/03/14 00:24:46;;;;;;;4.28;2.30;;;;;;;10.95;65.26;101612.53;5095829;28;20076;-67
2022/03/14 00:27:11;;;;;;;4.00;2.58;;;;;;;10.97;65.13;101613.97;5095857;28;20479;-67
2022/03/14 00:29:37;;;;;;;2.97;2.22;;;;;;;10.96;64.90;101614.97;5077063;28;20028;-67
2022/03/14 00:32:02;;;;;;;3.47;2.40;;;;;;;10.91;65.50;101616.44;5076944;28;20149;-67
2022/03/14 00:34:28;;;;;;;3.70;2.50;;;;;;;10.98;65.01;101620.75;5095300;28;20027;-67
2022/03/14 00:36:54;;;;;;;4.50;2.80;;;;;;;10.87;65.51;101621.13;5095776;28;20111;-67
2022/03/14 00:39:19;;;;;;;3.97;2.50;;;;;;;10.78;65.87;101617.75;5077516;28;20516;-67
2022/03/14 00:41:45;;;;;;;2.90;2.20;;;;;;;10.75;65.86;101620.69;5095631;28;20102;-67
2022/03/14 00:44:12;;;;;;;4.03;2.50;;;;;;;10.78;66.37;101635.84;5095612;28;20024;-67
2022/03/14 00:46:39;;;;;;;5.32;2.50;;;;;;;10.75;66.10;101627.63;5095530;28;20444;-67
2022/03/14 00:49:04;;;;;;;3.50;2.45;;;;;;;10.77;66.39;101633.44;5077236;28;20127;-67
2022/03/14 00:51:29;;;;;;;3.22;2.35;;;;;;;10.82;66.17;101636.34;5077384;28;20494;-67
2022/03/14 00:53:55;;;;;;;4.10;2.65;;;;;;;10.71;66.76;101640.09;5095405;28;20098;-67
2022/03/14 00:56:20;;;;;;;3.47;2.40;;;;;;;10.77;66.72;101642.00;5095378;28;20104;-67
2022/03/14 00:58:46;;;;;;;3.38;2.10;;;;;;;10.61;66.87;101642.84;5095168;28;20016;-67
2022/03/14 01:01:11;;;;;;;2.92;2.10;;;;;;;10.55;67.41;101645.28;5077040;28;20024;-67
2022/03/14 01:03:37;;;;;;;2.83;2.20;;;;;;;10.64;67.27;101654.63;5094036;28;20099;-67
2022/03/14 01:06:02;;;;;;;3.53;2.42;;;;;;;10.63;67.32;101650.44;5093271;28;20016;-67
2022/03/14 01:08:28;;;;;;;3.75;2.67;;;;;;;10.61;67.45;101660.13;5093038;28;20019;-67
2022/03/14 01:10:53;;;;;;;3.45;2.38;;;;;;;10.69;67.45;101661.91;5093082;28;20084;-67
2022/03/14 01:13:18;;;;;;;2.67;2.20;;;;;;;10.67;67.41;101666.44;5074891;28;20036;-68
2022/03/14 01:15:45;;;;;;;2.90;2.25;;;;;;;10.69;67.29;101675.63;5074637;28;20379;-67
2022/03/14 01:18:10;;;;;;;3.38;2.30;;;;;;;10.71;67.42;101676.28;5074258;28;20043;-67
2022/03/14 01:20:35;;;;;;;3.00;2.30;;;;;;;10.66;67.44;101682.91;5076703;28;20020;-68
2022/03/14 01:23:01;;;;;;;2.88;2.10;;;;;;;10.64;67.50;101679.69;5094734;28;20024;-69
2022/03/14 01:25:27;;;;;;;3.70;2.30;;;;;;;10.55;68.19;101673.72;5094774;28;20020;-68
2022/03/14 01:27:53;;;;;;;3.42;2.30;;;;;;;10.61;67.77;101683.41;5076603;28;20019;-67
2022/03/14 01:30:19;;;;;;;3.45;2.50;;;;;;;10.63;67.95;101683.25;5076593;28;20020;-66
2022/03/14 01:32:46;;;;;;;3.40;2.38;;;;;;;10.69;67.74;101683.38;5076538;28;20052;-66
2022/03/14 01:35:11;;;;;;;3.10;2.03;;;;;;;10.70;67.59;101682.41;5094553;28;20020;-66
2022/03/14 01:37:37;;;;;;;2.97;1.98;;;;;;;10.70;67.43;101682.41;5094445;28;20034;-69
2022/03/14 01:40:03;;;;;;;3.42;2.22;;;;;;;10.61;67.97;101686.00;5094499;28;20027;-67
2022/03/14 01:42:28;;;;;;;3.25;2.17;;;;;;;10.63;67.78;101680.66;5076262;28;20031;-67
2022/03/14 01:44:54;;;;;;;2.90;2.10;;;;;;;10.61;68.13;101694.53;5094446;28;20020;-67
2022/03/14 01:47:19;;;;;;;3.25;2.20;;;;;;;10.63;68.36;101691.00;5094414;28;20394;-68
2022/03/14 01:49:46;;;;;;;2.95;2.08;;;;;;;10.61;68.09;101683.41;5094130;28;20048;-67
2022/03/14 01:52:13;;;;;;;2.80;2.10;;;;;;;10.61;68.20;101696.31;5094386;28;20069;-67
2022/03/14 01:54:40;;;;;;;3.20;2.35;;;;;;;10.56;68.51;101689.09;5076085;28;20024;-66
2022/03/14 01:57:06;;;;;;;2.90;2.13;;;;;;;10.62;68.38;101690.22;5094073;28;20027;-67
2022/03/14 01:59:32;;;;;;;4.20;2.30;;;;;;;10.56;68.47;101689.09;5094131;28;20028;-67
2022/03/14 02:01:57;;;;;;;5.80;2.33;;;;;;;10.49;69.08;101690.69;5094065;28;20024;-66
2022/03/14 02:04:23;;;;;;;5.35;2.38;;;;;;;10.50;69.37;101683.75;5075667;28;20032;-66
2022/03/14 02:06:52;;;;;;;4.05;2.45;;;;;;;10.45;69.25;101688.63;5074392;28;20024;-68
2022/03/14 02:09:17;;;;;;;3.92;2.45;;;;;;;10.38;70.11;101699.59;5074495;28;20036;-66
2022/03/14 02:11:55;;;;;;;3.65;2.35;;;;;;;10.36;70.01;101678.28;5093838;28;20399;-67
2022/03/14 02:14:20;;;;;;;3.55;2.35;;;;;;;10.35;69.96;101697.31;5093885;28;20023;-69
2022/03/14 02:16:45;;;;;;;5.45;2.50;;;;;;;10.39;70.13;101700.41;5093851;28;20031;-66
2022/03/14 02:19:11;;;;;;;3.38;2.30;;;;;;;10.40;70.19;101702.03;5093705;28;20028;-66
2022/03/14 02:21:38;;;;;;;4.72;2.65;;;;;;;10.31;70.54;101698.63;5075347;28;20024;-67
2022/03/14 02:24:03;;;;;;;3.70;2.42;;;;;;;10.27;70.57;101719.78;5093512;28;20051;-66
2022/03/14 02:26:29;;;;;;;3.97;2.30;;;;;;;10.26;70.70;101715.56;5093758;28;20024;-66
2022/03/14 02:28:54;;;;;;;3.95;2.50;;;;;;;10.22;70.86;101722.03;5093489;28;20028;-66
2022/03/14 02:31:19;;;;;;;3.58;2.38;;;;;;;10.04;71.72;101724.75;5075385;28;20034;-66
2022/03/14 02:33:45;;;;;;;3.38;2.60;;;;;;;10.08;71.59;101726.84;5093566;28;20380;-67
2022/03/14 02:36:10;;;;;;;4.13;2.70;;;;;;;10.08;71.74;101728.63;5093534;28;20103;-66
2022/03/14 02:38:35;;;;;;;4.38;2.63;;;;;;;10.04;72.01;101730.75;5093426;28;20024;-67
2022/03/14 02:41:01;;;;;;;3.15;2.38;;;;;;;10.06;72.02;101738.31;5093415;28;20080;-67
2022/03/14 02:43:26;;;;;;;4.22;2.60;;;;;;;10.08;72.06;101739.78;5075124;28;20024;-67
2022/03/14 02:45:53;;;;;;;4.22;2.70;;;;;;;10.05;71.93;101744.44;5093413;28;20099;-67
2022/03/14 02:48:19;;;;;;;3.35;2.17;;;;;;;10.09;71.95;101743.94;5074983;28;20044;-67
2022/03/14 02:50:49;;;;;;;4.25;2.58;;;;;;;10.03;72.44;101736.84;5093367;28;20076;-67
2022/03/14 02:53:14;;;;;;;3.67;2.50;;;;;;;10.07;72.24;101739.91;5093296;28;20020;-66
2022/03/14 02:55:41;;;;;;;3.35;2.65;;;;;;;10.02;72.40;101742.19;5075131;28;20039;-67
2022/03/14 02:58:06;;;;;;;4.10;2.45;;;;;;;10.05;72.51;101750.41;5093193;28;20031;-66
2022/03/14 03:00:32;;;;;;;3.15;2.38;;;;;;;10.14;72.36;101759.78;5093272;28;20104;-66
2022/03/14 03:02:59;;;;;;;4.10;2.78;;;;;;;10.13;72.17;101747.03;5074999;28;20052;-68
2022/03/14 03:05:24;;;;;;;4.10;2.60;;;;;;;10.09;72.66;101758.66;5075155;28;20103;-68
2022/03/14 03:07:50;;;;;;;4.05;2.55;;;;;;;10.02;72.94;101766.22;5093143;28;20030;-66
2022/03/14 03:10:20;;;;;;;3.85;2.67;;;;;;;10.01;72.80;101763.78;5093086;28;20490;-66
2022/03/14 03:12:46;;;;;;;3.67;2.60;;;;;;;10.09;72.84;101763.81;5093113;28;20027;-66
2022/03/14 03:15:14;;;;;;;3.78;2.40;;;;;;;10.13;72.79;101762.53;5092940;28;20028;-66
2022/03/14 03:17:39;;;;;;;3.88;2.53;;;;;;;10.07;72.87;101763.16;5075246;28;20538;-65
2022/03/14 03:20:05;;;;;;;4.95;2.55;;;;;;;10.02;73.02;101766.22;5074946;28;20074;-67
2022/03/14 03:22:31;;;;;;;5.53;3.47;;;;;;;10.09;72.76;101777.53;5092985;28;20020;-66
2022/03/14 03:24:56;;;;;;;4.55;2.70;;;;;;;10.07;73.56;101783.81;5074806;28;20547;-67
2022/03/14 03:27:21;;;;;;;4.28;2.90;;;;;;;10.01;73.61;101780.13;5092918;28;20016;-67
2022/03/14 03:29:46;;;;;;;4.28;2.70;;;;;;;10.03;73.46;101779.94;5074792;28;20027;-68
2022/03/14 03:32:12;;;;;;;5.15;2.80;;;;;;;10.11;73.20;101787.72;5093004;28;20058;-68
2022/03/14 03:34:37;;;;;;;5.18;3.35;;;;;;;10.06;73.63;101789.97;5074786;28;20367;-68
2022/03/14 03:37:03;;;;;;;3.58;2.90;;;;;;;10.14;73.16;101793.38;5092955;28;20036;-67
2022/03/14 03:39:30;;;;;;;4.60;2.83;;;;;;;10.07;73.89;101794.97;5074891;28;20162;-67
2022/03/14 03:41:55;;;;;;;5.18;3.25;;;;;;;10.10;73.55;101799.81;5078661;28;20024;-67
2022/03/14 03:44:20;;;;;;;4.10;3.03;;;;;;;10.05;73.83;101794.31;5078659;28;20020;-67
2022/03/14 03:46:46;;;;;;;6.38;3.58;;;;;;;10.11;73.90;101805.78;5079113;28;20481;-67
2022/03/14 03:49:11;;;;;;;9.07;3.75;;;;;;;10.05;73.97;101809.81;5096880;28;20067;-67
2022/03/14 03:51:37;;;;;;;6.22;3.55;;;;;;;10.07;74.27;101815.63;5097046;28;20051;-66
2022/03/14 03:54:02;;;;;;;6.18;3.50;;;;;;;10.02;74.76;101817.88;5097338;28;20355;-67
2022/03/14 03:56:27;;;;;;;5.25;3.60;;;;;;;10.14;74.44;101815.81;5096975;28;20461;-66
2022/03/14 03:58:53;;;;;;;10.00;3.72;;;;;;;10.07;74.71;101820.81;5096762;28;20028;-66
2022/03/14 04:01:23;;;;;;;7.32;4.55;;;;;;;10.06;74.56;101823.53;5078827;28;20020;-66
2022/03/14 04:03:54;;;;;;;5.60;3.92;;;;;;;10.07;75.19;101831.13;5096775;28;20024;-67
2022/03/14 04:06:22;;;;;;;5.50;4.07;;;;;;;10.06;74.95;101841.63;5096994;28;20034;-66
2022/03/14 04:08:48;;;;;;;4.75;3.83;;;;;;;10.06;75.60;101851.94;5078604;28;20024;-67
2022/03/14 04:11:13;;;;;;;6.22;4.55;;;;;;;10.08;75.57;101855.19;5078584;28;20367;-67
2022/03/14 04:13:39;;;;;;;6.35;3.83;;;;;;;10.04;75.75;101861.63;5078675;28;20348;-67
2022/03/14 04:16:04;;;;;;;6.60;4.65;;;;;;;10.03;75.90;101863.38;5096951;28;20050;-67
2022/03/14 04:18:29;;;;;;;6.72;4.85;;;;;;;9.89;76.78;101867.38;5096794;28;20031;-67
2022/03/14 04:20:55;;;;;;;7.22;4.95;;;;;;;9.83;77.35;101862.84;5096605;28;20069;-67
2022/03/14 04:23:21;;;;;;;6.88;5.10;;;;;;;9.82;77.66;101865.59;5096902;28;20455;-67
2022/03/14 04:25:47;;;;;;;8.38;5.10;;;;;;;9.82;77.84;101870.75;5078512;28;20465;-67
2022/03/14 04:28:13;;;;;;;6.18;4.70;;;;;;;9.81;77.94;101874.28;5096363;28;20430;-67
2022/03/14 04:30:38;;;;;;;6.03;4.72;;;;;;;9.87;78.16;101871.91;5096639;28;20024;-67
2022/03/14 04:33:04;;;;;;;10.07;5.40;;;;;;;9.85;78.34;101880.75;5078343;28;20489;-67
2022/03/14 04:35:29;;;;;;;7.10;5.40;;;;;;;9.74;78.97;101891.34;5096720;28;20020;-66
2022/03/14 04:37:55;;;;;;;8.05;5.82;;;;;;;9.76;78.98;101898.00;5078295;28;20026;-67
2022/03/14 04:40:21;;;;;;;8.00;5.85;;;;;;;9.75;78.71;101896.34;5096128;28;20375;-67
2022/03/14 04:42:46;;;;;;;6.88;5.93;;;;;;;9.62;79.84;101906.31;5078067;28;20038;-67
2022/03/14 04:45:12;;;;;;;8.20;6.05;;;;;;;9.67;79.90;101904.06;5096158;28;20020;-67
2022/03/14 04:47:38;;;;;;;8.27;6.20;;;;;;;9.70;80.13;101922.66;5096332;28;20031;-67
2022/03/14 04:50:04;;;;;;;7.88;6.03;;;;;;;9.72;80.69;101917.31;5095999;28;20051;-68
2022/03/14 04:52:30;;;;;;;10.10;6.85;;;;;;;9.72;80.95;101927.63;5077762;28;20024;-66
2022/03/14 04:54:56;;;;;;;9.48;7.45;;;;;;;9.47;83.09;101927.50;5095778;28;20372;-66
2022/03/14 04:57:22;;;;;;;9.15;7.13;;;;;;;9.32;84.18;101930.78;5095807;28;20016;-66
2022/03/14 04:59:47;;;;;;;9.35;7.47;;;;;;;9.31;85.43;101935.13;5095782;28;20035;-67
2022/03/14 05:02:12;;;;;;;9.57;7.82;;;;;;;9.29;86.21;101942.19;5095799;28;20120;-67
2022/03/14 05:04:38;;;;;;;10.70;8.68;;;;;;;9.26;87.79;101947.66;5077816;28;20020;-66
2022/03/14 05:07:07;;;;;;;12.90;9.50;;;;;;;9.23;87.77;101955.69;5095499;28;20386;-66
2022/03/14 05:09:33;;;;;;;12.90;10.10;;;;;;;9.13;88.49;101942.88;5077453;28;20024;-66
2022/03/14 05:11:58;;;;;;;14.18;11.02;;;;;;;8.99;90.54;101949.38;5095734;28;20043;-66
2022/03/14 05:14:23;;;;;;;14.18;11.40;;;;;;;9.10;89.85;101955.28;5095541;28;20498;-68
2022/03/14 05:16:48;;;;;;;16.85;12.23;;;;;;;9.07;91.00;101953.00;5095404;28;20020;-67
2022/03/14 05:19:14;;;;;;;14.70;11.93;;;;;;;8.94;91.27;101954.16;5095647;28;20105;-67
2022/03/14 05:21:39;;;;;;;14.60;11.55;;;;;;;8.91;91.44;101957.03;5077605;28;20467;-67
2022/03/14 05:24:05;;;;;;;15.32;12.48;;;;;;;8.96;91.33;101964.34;5095377;28;20400;-67
2022/03/14 05:26:31;;;;;;;15.00;11.70;;;;;;;8.90;91.69;101970.88;5095364;28;20028;-67
2022/03/14 05:28:57;;;;;;;15.32;11.68;;;;;;;8.90;91.07;101968.31;5093959;28;20114;-68
2022/03/14 05:31:23;;;;;;;14.57;11.45;;;;;;;9.02;91.06;101976.63;5095352;28;20028;-67
2022/03/14 05:33:48;;;;;;;14.63;10.45;;;;;;;9.03;90.38;101981.66;5095125;28;20020;-67
2022/03/14 05:36:14;;;;;;;14.27;10.85;;;;;;;8.90;89.82;101988.94;5095025;28;20047;-66
2022/03/14 05:38:39;;;;;;;14.93;10.90;;;;;;;8.95;90.08;101996.25;5095012;28;20059;-66
2022/03/14 05:41:04;;;;;;;14.13;10.63;;;;;;;8.93;89.34;101996.38;5094949;28;20038;-67
2022/03/14 05:43:36;;;;;;;15.15;11.02;;;;;;;9.06;89.41;102005.50;5076625;28;20032;-67
2022/03/14 05:46:03;;;;;;;14.38;10.98;;;;;;;9.03;89.07;102004.03;5076705;28;20020;-66
2022/03/14 05:48:28;;;;;;;14.10;10.38;;;;;;;9.07;88.93;102018.25;5076395;28;20043;-68
2022/03/14 05:50:54;;;;;;;18.60;11.52;;;;;;;8.98;88.84;102019.16;5094924;28;20081;-68
2022/03/14 05:53:19;;;;;;;17.95;10.73;;;;;;;8.96;88.62;102027.00;5076684;28;20012;-67
2022/03/14 05:55:44;;;;;;;15.25;11.18;;;;;;;9.01;88.48;102024.00;5094689;28;20027;-68
2022/03/14 05:58:10;;;;;;;16.38;10.80;;;;;;;9.00;88.29;102028.34;5076106;28;20051;-67
2022/03/14 06:00:36;;;;;;;14.68;10.90;;;;;;;9.02;87.81;102025.63;5094540;28;20049;-67
2022/03/14 06:03:01;;;;;;;17.88;10.77;;;;;;;8.94;88.15;102038.44;5075591;28;20031;-67
2022/03/14 06:05:27;;;;;;;15.88;10.32;;;;;;;8.94;88.30;102043.59;5094492;28;20024;-67
2022/03/14 06:07:52;;;;;;;17.25;9.98;;;;;;;8.82;88.25;102056.66;5094453;28;20024;-68
2022/03/14 06:10:18;;;;;;;15.35;9.88;;;;;;;8.77;88.29;102060.63;5075643;28;20023;-68
2022/03/14 06:12:44;;;;;;;18.63;9.27;;;;;;;8.76;88.34;102069.34;5094328;28;20032;-68
2022/03/14 06:15:13;;;;;;;19.42;9.38;;;;;;;8.78;87.74;102070.00;5094390;28;20045;-67
2022/03/14 06:17:42;;;;;;;17.33;10.55;;;;;;;8.79;88.01;102071.63;5094387;28;20077;-66
2022/03/14 06:20:11;;;;;;;17.60;10.20;;;;;;;8.73;88.15;102074.78;5075292;28;20040;-70
2022/03/14 06:22:46;;;;;;;18.88;10.45;;;;;;;8.78;87.73;102080.31;5093799;28;20474;-67
2022/03/14 06:25:13;;;;;;;20.13;11.05;;;;;;;8.81;87.82;102087.75;5093929;28;20027;-66
2022/03/14 06:27:39;;;;;;;16.73;10.02;;;;;;;8.87;87.92;102089.75;5094896;28;20387;-67
2022/03/14 06:30:06;;;;;;;21.20;10.80;;;;;;;8.97;87.96;102098.25;5076256;28;20024;-67
2022/03/14 06:32:36;;;;;;;16.88;9.55;;;;;;;8.82;87.67;102099.69;5093894;28;20363;-67
2022/03/14 06:35:06;;;;;;;14.93;9.43;;;;;;;8.89;87.82;102108.50;5093930;28;20047;-67
2022/03/14 06:37:32;;;;;;;17.17;9.32;;;;;;;8.93;87.58;102104.66;5075818;28;20023;-67
2022/03/14 06:39:57;;;;;;;18.45;9.43;;;;;;;8.95;86.80;102118.22;5075891;28;20440;-68
2022/03/14 06:42:23;;;;;;;16.83;9.30;;;;;;;9.03;87.10;102122.66;5075976;28;20027;-67
2022/03/14 06:44:50;;;;;;;18.25;8.82;;;;;;;9.04;86.18;102124.28;5093894;28;20489;-67
2022/03/14 06:47:19;;;;;;;18.95;9.07;;;;;;;9.08;86.74;102129.97;5093964;28;20466;-68
2022/03/14 06:49:45;;;;;;;16.83;10.07;;;;;;;9.19;85.98;102134.91;5075050;28;20387;-68
2022/03/14 06:52:12;;;;;;;15.63;10.20;;;;;;;9.00;86.43;102139.22;5091322;28;20024;-67
2022/03/14 06:54:38;;;;;;;18.85;10.50;;;;;;;9.05;87.46;102138.78;5074472;28;20024;-68
2022/03/14 06:57:03;;;;;;;14.63;10.43;;;;;;;9.09;86.37;102141.88;5074081;28;20391;-67
2022/03/14 06:59:29;;;;;;;19.27;10.80;;;;;;;9.10;86.60;102151.25;5074524;28;20031;-68
2022/03/14 07:01:54;;;;;;;16.92;10.85;;;;;;;9.08;86.52;102161.72;5074880;28;20494;-68
2022/03/14 07:04:19;;;;;;;17.17;10.68;;;;;;;9.16;87.21;102168.75;5074943;28;20024;-67
2022/03/14 07:06:45;;;;;;;20.17;11.40;;;;;;;9.13;86.68;102172.41;5093744;28;20048;-68
2022/03/14 07:09:11;;;;;;;25.77;11.15;;;;;;;8.96;87.90;102180.91;5093437;28;20065;-67
2022/03/14 07:11:36;;;;;;;22.55;12.70;;;;;;;9.10;86.76;102182.22;5075211;28;20115;-67
2022/03/14 07:14:02;;;;;;;19.63;11.98;;;;;;;9.17;86.97;102178.91;5093224;28;20520;-67
2022/03/14 07:16:27;;;;;;;18.05;12.05;;;;;;;9.21;86.82;102182.03;5096977;28;20111;-67
2022/03/14 07:18:52;;;;;;;21.45;11.48;;;;;;;9.27;86.10;102191.75;5097522;28;20042;-67
2022/03/14 07:21:18;;;;;;;26.10;12.13;;;;;;;9.31;85.69;102198.25;5097813;28;20019;-67
2022/03/14 07:23:44;;;;;;;19.77;11.73;;;;;;;9.52;85.55;102199.75;5079292;28;20024;-69
2022/03/14 07:26:10;;;;;;;25.15;11.75;;;;;;;9.56;84.66;102195.97;5079073;28;20459;-68
2022/03/14 07:28:35;;;;;;;23.50;11.40;;;;;;;9.52;85.22;102199.75;5097130;28;20081;-69
2022/03/14 07:31:01;;;;;;;21.35;11.88;;;;;;;9.46;84.72;102189.06;5078611;28;20028;-68
2022/03/14 07:33:28;;;;;;;19.30;12.27;;;;;;;9.34;85.38;102187.63;5095472;28;20012;-67
2022/03/14 07:35:53;;;;;;;23.10;12.10;;;;;;;9.59;85.30;102190.50;5096230;28;20483;-68
2022/03/14 07:38:19;;;;;;;21.83;13.30;;;;;;;9.62;83.99;102188.44;5077316;28;20077;-69
2022/03/14 07:40:45;;;;;;;21.98;12.07;;;;;;;9.46;84.87;102194.22;5078683;28;20047;-67
2022/03/14 07:43:11;;;;;;;18.35;12.15;;;;;;;9.55;84.58;102202.88;5097001;28;20436;-68
2022/03/14 07:45:36;;;;;;;20.25;12.68;;;;;;;9.64;84.21;102206.38;5078745;28;20020;-69
2022/03/14 07:48:02;;;;;;;28.63;13.75;;;;;;;9.68;84.17;102205.91;5096971;28;20020;-66
2022/03/14 07:50:28;;;;;;;30.08;13.55;;;;;;;9.64;83.87;102198.63;5079191;28;20028;-67
2022/03/14 07:52:56;;;;;;;19.98;13.52;;;;;;;9.61;83.64;102201.47;5079391;28;20028;-69
2022/03/14 07:55:22;;;;;;;23.25;13.85;;;;;;;9.80;84.08;102216.03;5078897;28;20031;-69
2022/03/14 07:57:48;;;;;;;21.90;14.32;;;;;;;9.89;83.49;102222.88;5095363;28;20024;-69
2022/03/14 08:00:18;;;;;;;22.42;14.52;;;;;;;9.99;83.08;102218.47;5096445;28;20602;-69
2022/03/14 08:02:44;;;;;;;23.35;13.88;;;;;;;10.04;83.33;102225.75;5094754;28;20027;-69
2022/03/14 08:05:14;;;;;;;24.42;14.18;;;;;;;10.17;82.18;102233.97;5094256;28;20074;-68
2022/03/14 08:07:42;;;;;;;30.55;13.95;;;;;;;10.10;82.19;102235.53;5077609;28;20119;-69
2022/03/14 08:10:09;;;;;;;20.20;14.00;;;;;;;10.06;82.73;102239.34;5095978;28;20024;-68
2022/03/14 08:13:01;;;;;;;20.63;14.13;;;;;;;10.06;82.75;102244.53;5076616;28;20023;-69
2022/03/14 08:15:28;;;;;;;27.17;14.95;;;;;;;10.28;81.80;102246.69;5090359;28;20126;-69
2022/03/14 08:17:55;;;;;;;22.98;15.02;;;;;;;10.11;82.54;102247.47;5076165;28;20028;-69
2022/03/14 08:20:22;;;;;;;26.02;15.63;;;;;;;10.28;81.93;102235.53;5092185;28;20016;-69
2022/03/14 08:22:52;;;;;;;22.55;15.90;;;;;;;10.50;82.09;102244.56;5093115;28;20037;-67
2022/03/14 08:25:18;;;;;;;23.77;15.75;;;;;;;10.42;81.01;102247.13;5093587;28;20478;-69
2022/03/14 08:27:44;;;;;;;22.67;15.10;;;;;;;10.81;79.63;102260.47;5075496;28;20034;-69
2022/03/14 08:30:10;;;;;;;23.00;15.77;;;;;;;10.57;79.82;102245.63;5075885;28;20020;-69
2022/03/14 08:32:37;;;;;;;22.83;16.15;;;;;;;10.62;80.43;102264.06;5096189;28;20429;-69
2022/03/14 08:35:07;;;;;;;23.77;16.75;;;;;;;10.48;80.01;102272.38;5094526;28;20024;-68
2022/03/14 08:37:36;;;;;;;26.13;16.90;;;;;;;10.51;80.47;102272.06;5095856;28;20070;-68
2022/03/14 08:40:02;;;;;;;25.30;16.67;;;;;;;10.49;80.31;102258.47;5095847;28;20474;-70
2022/03/14 08:42:28;;;;;;;26.30;16.50;;;;;;;10.75;79.42;102263.66;5077964;28;20403;-69
2022/03/14 08:44:53;;;;;;;23.77;17.05;;;;;;;10.73;79.96;102269.00;5094538;28;20062;-69
2022/03/14 08:47:18;;;;;;;28.13;17.38;;;;;;;10.71;79.94;102289.03;5077932;28;20355;-69
2022/03/14 08:49:44;;;;;;;29.27;18.42;;;;;;;10.60;80.21;102294.44;5076537;28;20052;-69
2022/03/14 08:52:09;;;;;;;31.05;19.88;;;;;;;10.66;79.83;102299.00;5095802;28;20356;-69
2022/03/14 08:54:35;;;;;;;33.08;20.45;;;;;;;10.93;78.83;102305.00;5077365;28;20019;-69
2022/03/14 08:57:03;;;;;;;31.92;20.85;;;;;;;10.78;78.98;102315.09;5095488;28;20022;-69
2022/03/14 08:59:28;;;;;;;36.58;22.33;;;;;;;10.49;79.77;102316.16;5093667;28;20024;-69
2022/03/14 09:01:54;;;;;;;35.50;22.27;;;;;;;10.54;80.07;102326.84;5074544;28;20039;-70
2022/03/14 09:04:24;;;;;;;36.00;23.33;;;;;;;10.44;79.94;102325.31;5095656;28;20027;-69
2022/03/14 09:06:50;;;;;;;41.50;24.10;;;;;;;10.48;80.28;102334.41;5077724;28;20023;-69
2022/03/14 09:09:15;;;;;;;38.70;24.48;;;;;;;10.35;80.75;102338.16;5076799;28;20112;-68
2022/03/14 09:11:44;;;;;;;37.50;24.58;;;;;;;10.28;80.62;102321.63;5076102;28;20038;-69
2022/03/14 09:14:14;;;;;;;37.42;24.90;;;;;;;10.46;79.38;102341.47;5075849;28;20406;-69
2022/03/14 09:16:40;;;;;;;36.67;24.13;;;;;;;10.97;77.58;102343.34;5075451;28;20024;-71
2022/03/14 09:19:05;;;;;;;37.33;24.27;;;;;;;11.36;76.17;102329.19;5074522;28;20024;-69
2022/03/14 09:21:33;;;;;;;33.97;22.88;;;;;;;11.55;75.41;102357.44;5075948;28;20020;-69
2022/03/14 09:23:59;;;;;;;32.05;21.52;;;;;;;11.22;75.27;102351.25;5093961;28;20031;-70
2022/03/14 09:26:25;;;;;;;32.08;20.92;;;;;;;11.21;74.57;102352.22;5075982;28;20039;-69
2022/03/14 09:28:50;;;;;;;27.63;19.58;;;;;;;11.68;73.53;102365.59;5094538;28;20675;-68
2022/03/14 09:31:16;;;;;;;29.52;19.98;;;;;;;12.64;69.90;102360.00;5092505;28;20035;-68
2022/03/14 09:33:42;;;;;;;32.67;21.60;;;;;;;12.30;69.98;102359.31;5094706;28;20103;-69
2022/03/14 09:36:08;;;;;;;34.60;23.40;;;;;;;12.00;70.83;102364.13;5075719;28;20490;-69
2022/03/14 09:38:34;;;;;;;36.45;24.38;;;;;;;12.15;71.77;102362.53;5073663;28;20028;-70
2022/03/14 09:41:04;;;;;;;34.42;22.38;;;;;;;11.55;72.56;102370.38;5091746;28;20417;-71
2022/03/14 09:43:31;;;;;;;34.90;23.50;;;;;;;11.39;74.41;102370.28;5074651;28;20106;-68
2022/03/14 09:45:59;;;;;;;35.92;23.42;;;;;;;11.19;74.61;102391.22;5072721;28;20382;-69
2022/03/14 09:48:25;;;;;;;37.95;22.48;;;;;;;11.14;75.66;102384.88;5090432;28;20056;-70
2022/03/14 09:50:52;;;;;;;27.63;17.90;;;;;;;11.22;75.91;102390.91;5072563;28;20047;-71
2022/03/14 09:53:18;;;;;;;28.75;18.42;;;;;;;10.93;75.96;102391.16;5056153;28;20399;-70
2022/03/14 09:55:46;;;;;;;32.78;19.42;;;;;;;11.09;75.40;102393.06;5090703;28;20027;-69
2022/03/14 09:58:17;;;;;;;29.38;19.00;;;;;;;11.52;74.96;102399.97;5090853;28;20026;-69
2022/03/14 10:00:42;;;;;;;29.38;19.63;;;;;;;11.43;73.26;102402.69;5075031;28;20382;-68
2022/03/14 10:03:08;;;;;;;34.90;20.67;;;;;;;11.42;74.56;102396.69;5093711;28;20027;-69
2022/03/14 10:05:34;;;;;;;30.50;20.52;;;;;;;12.23;71.99;102411.00;5076425;28;20383;-68
2022/03/14 10:08:00;;;;;;;49.22;21.90;;;;;;;12.42;70.78;102413.28;5091409;28;20501;-69
2022/03/14 10:10:25;;;;;;;34.22;21.55;;;;;;;12.52;69.42;102417.53;5074654;28;20032;-71
2022/03/14 10:12:57;;;;;;;39.78;21.38;;;;;;;12.68;69.62;102421.94;5091621;28;20039;-69
2022/03/14 10:15:24;;;;;;;41.30;21.77;;;;;;;13.28;67.61;102419.84;5074380;28;20048;-69
2022/03/14 10:17:51;;;;;;;28.88;20.33;;;;;;;13.31;67.88;102421.28;5075688;28;20544;-69
2022/03/14 10:20:16;;;;;;;33.45;19.95;;;;;;;12.65;68.54;102434.22;5093662;28;20024;-69
2022/03/14 10:22:42;;;;;;;29.70;20.00;;;;;;;11.99;70.74;102434.22;5075505;28;20108;-69
2022/03/14 10:25:14;;;;;;;32.35;20.58;;;;;;;11.77;72.88;102432.94;5093023;28;20131;-68
2022/03/14 10:27:43;;;;;;;31.85;20.10;;;;;;;11.86;72.29;102438.06;5093547;28;20032;-70
2022/03/14 10:30:30;;;;;;;27.38;17.55;;;;;;;11.73;73.00;102438.44;5075255;28;20031;-70
2022/03/14 10:33:05;;;;;;;25.80;17.30;;;;;;;11.76;73.50;102447.69;5092218;28;20016;-70
2022/03/14 10:35:35;;;;;;;27.00;17.58;;;;;;;11.80;72.91;102443.84;5092461;28;20555;-70
2022/03/14 10:38:04;;;;;;;24.35;15.52;;;;;;;12.34;70.93;102449.59;5074006;28;20078;-69
2022/03/14 10:40:35;;;;;;;29.38;16.17;;;;;;;13.10;68.59;102442.53;5075230;28;20030;-68
2022/03/14 10:43:01;;;;;;;24.00;14.10;;;;;;;14.25;63.56;102445.66;5093479;28;20153;-69
2022/03/14 10:45:29;;;;;;;22.92;13.93;;;;;;;13.62;64.22;102454.34;5075065;28;20107;-68
2022/03/14 10:47:57;;;;;;;19.95;13.90;;;;;;;13.94;63.69;102456.84;5075017;28;20506;-70
2022/03/14 10:50:36;;;;;;;22.08;14.13;;;;;;;14.38;62.00;102456.31;5093392;28;20059;-69
2022/03/14 10:53:03;;;;;;;29.15;14.70;;;;;;;13.98;64.09;102458.16;5093403;28;20502;-69
2022/03/14 10:55:35;;;;;;;23.23;16.48;;;;;;;13.15;65.53;102455.03;5093182;28;20474;-69
2022/03/14 10:58:17;;;;;;;27.90;15.73;;;;;;;12.90;66.24;102460.22;5091953;28;20028;-69
2022/03/14 11:01:03;;;;;;;26.67;16.17;;;;;;;14.01;63.36;102462.16;5093472;28;20360;-68
2022/03/14 11:03:30;;;;;;;24.83;16.77;;;;;;;13.49;65.25;102465.25;5093123;28;20066;-69
2022/03/14 11:05:58;;;;;;;24.58;15.48;;;;;;;13.97;63.60;102461.72;5093090;28;20022;-69
2022/03/14 11:08:33;;;;;;;23.65;14.43;;;;;;;13.74;64.24;102469.41;5074862;28;20034;-67
2022/03/14 11:11:01;;;;;;;23.27;13.82;;;;;;;13.63;64.33;102479.34;5090735;28;20032;-68
2022/03/14 11:13:26;;;;;;;23.08;12.90;;;;;;;13.99;62.80;102483.16;5092848;28;20060;-68
2022/03/14 11:15:52;;;;;;;20.30;10.38;;;;;;;13.95;62.34;102487.06;5092990;28;20081;-67